createdAt,value
2024-02-17T00:01:18.820Z,30.73
2024-02-17T00:03:47.486Z,14.35
2024-02-17T00:06:16.136Z,12.63
2024-02-17T00:08:44.656Z,14.30
2024-02-17T00:11:13.356Z,11.23
2024-02-17T00:13:44.040Z,12.77
2024-02-17T00:16:12.609Z,13.02
2024-02-17T00:18:41.306Z,18.88
2024-02-17T00:21:09.884Z,13.60
2024-02-17T00:23:38.397Z,15.25
2024-02-17T00:26:06.920Z,14.73
2024-02-17T00:28:35.436Z,16.55
2024-02-17T00:31:04.019Z,14.85
2024-02-17T00:33:32.575Z,16.17
2024-02-17T00:36:01.153Z,19.20
2024-02-17T00:38:29.683Z,16.52
2024-02-17T00:40:58.228Z,14.60
2024-02-17T00:43:26.658Z,14.45
2024-02-17T00:45:55.317Z,15.10
2024-02-17T00:48:24.640Z,13.65
2024-02-17T00:50:58.139Z,16.95
2024-02-17T00:53:33.556Z,16.13
2024-02-17T00:56:02.034Z,20.48
2024-02-17T00:58:30.575Z,15.57
2024-02-17T01:00:59.171Z,17.27
2024-02-17T01:03:27.876Z,17.33
2024-02-17T01:05:56.650Z,16.52
2024-02-17T01:08:25.237Z,14.68
2024-02-17T01:10:53.809Z,18.40
2024-02-17T01:13:22.531Z,14.07
2024-02-17T01:15:51.175Z,15.07
2024-02-17T01:18:19.889Z,18.48
2024-02-17T01:20:48.510Z,15.07
2024-02-17T01:23:16.984Z,17.58
2024-02-17T01:25:45.535Z,15.02
2024-02-17T01:28:14.074Z,14.35
2024-02-17T01:30:42.833Z,16.33
2024-02-17T01:33:11.411Z,16.17
2024-02-17T01:35:39.969Z,19.75
2024-02-17T01:38:09.463Z,16.35
2024-02-17T01:40:38.484Z,16.98
2024-02-17T01:43:09.912Z,19.73
2024-02-17T01:45:38.533Z,18.30
2024-02-17T01:48:07.633Z,16.13
2024-02-17T01:50:36.271Z,15.93
2024-02-17T01:53:05.354Z,15.73
2024-02-17T01:55:34.171Z,16.25
2024-02-17T01:58:03.025Z,14.70
2024-02-17T02:00:32.745Z,14.60
2024-02-17T02:03:01.756Z,19.88
2024-02-17T02:05:30.417Z,14.02
2024-02-17T02:07:58.952Z,17.33
2024-02-17T02:10:27.466Z,17.15
2024-02-17T02:12:56.128Z,17.23
2024-02-17T02:15:29.960Z,14.98
2024-02-17T02:18:05.987Z,14.02
2024-02-17T02:20:37.912Z,17.60
2024-02-17T02:23:06.568Z,15.18
2024-02-17T02:25:35.162Z,20.25
2024-02-17T02:28:03.943Z,15.05
2024-02-17T02:30:33.413Z,16.98
2024-02-17T02:33:02.107Z,17.08
2024-02-17T02:35:30.720Z,16.88
2024-02-17T02:37:59.198Z,15.25
2024-02-17T02:40:27.742Z,14.50
2024-02-17T02:42:57.803Z,14.82
2024-02-17T02:45:26.585Z,14.45
2024-02-17T02:47:55.292Z,13.38
2024-02-17T02:50:23.869Z,12.98
2024-02-17T02:52:52.510Z,12.88
2024-02-17T02:55:20.995Z,15.43
2024-02-17T02:57:49.661Z,12.45
2024-02-17T03:00:18.954Z,15.95
2024-02-17T03:02:47.628Z,19.65
2024-02-17T03:05:16.138Z,17.65
2024-02-17T03:07:44.788Z,17.33
2024-02-17T03:10:13.475Z,11.95
2024-02-17T03:12:42.008Z,11.88
2024-02-17T03:15:10.791Z,13.23
2024-02-17T03:17:39.300Z,13.20
2024-02-17T03:20:08.473Z,17.17
2024-02-17T03:22:37.145Z,16.73
2024-02-17T03:25:06.063Z,14.70
2024-02-17T03:27:35.837Z,12.18
2024-02-17T03:30:06.301Z,11.63
2024-02-17T03:32:35.401Z,12.00
2024-02-17T03:35:07.741Z,13.93
2024-02-17T03:37:36.326Z,12.88
2024-02-17T03:40:10.065Z,13.07
2024-02-17T03:42:38.681Z,16.35
2024-02-17T03:45:07.614Z,12.30
2024-02-17T03:47:36.122Z,11.88
2024-02-17T03:50:05.207Z,13.35
2024-02-17T03:52:34.321Z,12.27
2024-02-17T03:55:02.942Z,12.75
2024-02-17T03:57:31.570Z,11.45
2024-02-17T04:00:00.352Z,12.10
2024-02-17T04:02:28.817Z,11.43
2024-02-17T04:04:57.277Z,13.70
2024-02-17T04:07:25.984Z,11.18
2024-02-17T04:09:54.709Z,12.38
2024-02-17T04:12:23.404Z,10.55
2024-02-17T04:14:52.507Z,11.10
2024-02-17T04:17:21.087Z,9.85
2024-02-17T04:19:49.813Z,11.18
2024-02-17T04:22:18.539Z,11.38
2024-02-17T04:24:47.229Z,15.00
2024-02-17T04:27:15.968Z,11.18
2024-02-17T04:29:44.564Z,11.25
2024-02-17T04:32:13.034Z,12.75
2024-02-17T04:34:41.769Z,11.55
2024-02-17T04:37:10.525Z,11.05
2024-02-17T04:39:39.093Z,14.10
2024-02-17T04:42:07.710Z,11.10
2024-02-17T04:44:36.737Z,11.15
2024-02-17T04:47:05.249Z,10.63
2024-02-17T04:49:35.326Z,10.32
2024-02-17T04:52:04.030Z,10.77
2024-02-17T04:54:32.614Z,13.40
2024-02-17T04:57:01.086Z,11.85
2024-02-17T04:59:30.240Z,10.15
2024-02-17T05:01:58.797Z,10.00
2024-02-17T05:04:27.420Z,11.05
2024-02-17T05:06:56.622Z,12.07
2024-02-17T05:09:26.288Z,10.45
2024-02-17T05:11:56.794Z,10.90
2024-02-17T05:14:26.413Z,13.50
2024-02-17T05:16:54.863Z,9.90
2024-02-17T05:19:23.750Z,12.43
2024-02-17T05:21:53.372Z,13.65
2024-02-17T05:24:21.925Z,12.65
2024-02-17T05:26:50.762Z,12.05
2024-02-17T05:29:19.430Z,10.85
2024-02-17T05:31:47.865Z,9.98
2024-02-17T05:34:18.564Z,10.63
2024-02-17T05:36:47.193Z,13.05
2024-02-17T05:39:15.747Z,17.15
2024-02-17T05:41:44.427Z,10.57
2024-02-17T05:44:12.885Z,12.10
2024-02-17T05:46:41.317Z,9.68
2024-02-17T05:49:10.679Z,11.48
2024-02-17T05:51:39.212Z,12.90
2024-02-17T05:54:08.857Z,13.48
2024-02-17T05:56:37.368Z,9.88
2024-02-17T05:59:05.791Z,10.20
2024-02-17T06:01:34.413Z,14.40
2024-02-17T06:04:03.039Z,8.60
2024-02-17T06:06:31.698Z,13.50
2024-02-17T06:09:00.189Z,10.77
2024-02-17T06:11:28.796Z,18.08
2024-02-17T06:13:58.249Z,11.75
2024-02-17T06:16:30.363Z,12.30
2024-02-17T06:19:17.629Z,13.48
2024-02-17T06:21:46.324Z,13.05
2024-02-17T06:24:14.927Z,9.48
2024-02-17T06:26:44.286Z,13.45
2024-02-17T06:29:12.879Z,11.73
2024-02-17T06:31:43.352Z,10.23
2024-02-17T06:34:13.183Z,13.32
2024-02-17T06:36:44.107Z,14.20
2024-02-17T06:39:13.439Z,11.52
2024-02-17T06:41:41.973Z,10.52
2024-02-17T06:44:10.516Z,9.32
2024-02-17T06:46:39.625Z,12.02
2024-02-17T06:49:08.289Z,12.73
2024-02-17T06:51:37.837Z,11.38
2024-02-17T06:54:06.476Z,12.05
2024-02-17T06:56:35.054Z,12.75
2024-02-17T06:59:03.529Z,11.02
2024-02-17T07:01:32.089Z,9.25
2024-02-17T07:04:01.048Z,9.63
2024-02-17T07:06:29.857Z,9.20
2024-02-17T07:08:58.512Z,9.20
2024-02-17T07:11:27.041Z,13.05
2024-02-17T07:13:55.649Z,12.93
2024-02-17T07:16:24.148Z,13.57
2024-02-17T07:18:52.782Z,13.43
2024-02-17T07:21:21.537Z,9.88
2024-02-17T07:23:50.056Z,12.05
2024-02-17T07:26:18.639Z,10.55
2024-02-17T07:28:48.558Z,9.95
2024-02-17T07:31:18.132Z,15.40
2024-02-17T07:33:48.167Z,10.73
2024-02-17T07:36:17.021Z,8.63
2024-02-17T07:38:45.613Z,12.73
2024-02-17T07:41:14.563Z,11.32
2024-02-17T07:43:42.989Z,11.73
2024-02-17T07:46:11.525Z,11.35
2024-02-17T07:48:40.066Z,11.63
2024-02-17T07:51:08.838Z,11.77
2024-02-17T07:53:38.349Z,13.52
2024-02-17T07:56:09.278Z,9.70
2024-02-17T07:58:38.134Z,10.35
2024-02-17T08:01:06.716Z,16.75
2024-02-17T08:03:35.414Z,12.93
2024-02-17T08:06:04.201Z,11.85
2024-02-17T08:08:33.661Z,11.63
2024-02-17T08:11:02.165Z,14.07
2024-02-17T08:13:31.463Z,10.45
2024-02-17T08:16:00.009Z,9.40
2024-02-17T08:18:28.642Z,13.45
2024-02-17T08:21:02.392Z,10.48
2024-02-17T08:23:30.868Z,11.68
2024-02-17T08:26:04.694Z,11.70
2024-02-17T08:28:33.700Z,11.98
2024-02-17T08:31:02.209Z,13.82
2024-02-17T08:33:31.288Z,11.25
2024-02-17T08:36:00.177Z,12.18
2024-02-17T08:38:28.737Z,10.57
2024-02-17T08:40:57.334Z,12.13
2024-02-17T08:43:25.792Z,13.25
2024-02-17T08:45:54.325Z,10.63
2024-02-17T08:48:23.541Z,11.95
2024-02-17T08:50:52.745Z,10.60
2024-02-17T08:53:21.384Z,9.63
2024-02-17T08:55:49.866Z,14.68
2024-02-17T08:58:18.301Z,12.18
2024-02-17T09:00:47.086Z,12.15
2024-02-17T09:03:15.609Z,11.27
2024-02-17T09:05:45.440Z,13.27
2024-02-17T09:08:13.964Z,12.88
2024-02-17T09:10:42.541Z,12.95
2024-02-17T09:13:10.997Z,10.73
2024-02-17T09:15:39.569Z,13.32
2024-02-17T09:18:08.162Z,12.50
2024-02-17T09:20:36.764Z,10.73
2024-02-17T09:23:06.971Z,10.68
2024-02-17T09:25:36.094Z,11.88
2024-02-17T09:28:05.146Z,9.88
2024-02-17T09:30:35.588Z,11.70
2024-02-17T09:33:04.562Z,17.50
2024-02-17T09:35:33.102Z,12.63
2024-02-17T09:38:01.937Z,14.65
2024-02-17T09:40:30.526Z,10.80
2024-02-17T09:42:59.097Z,19.17
2024-02-17T09:45:28.231Z,13.23
2024-02-17T09:47:59.708Z,10.75
2024-02-17T09:50:29.352Z,14.70
2024-02-17T09:53:02.242Z,10.65
2024-02-17T09:55:32.157Z,12.25
2024-02-17T09:58:00.810Z,11.10
2024-02-17T10:00:29.828Z,12.50
2024-02-17T10:03:01.093Z,10.35
2024-02-17T10:05:30.126Z,12.25
2024-02-17T10:07:58.817Z,10.13
2024-02-17T10:10:27.326Z,13.23
2024-02-17T10:13:02.458Z,13.23
2024-02-17T10:15:33.433Z,9.30
2024-02-17T10:18:02.182Z,10.82
2024-02-17T10:20:32.485Z,8.27
2024-02-17T10:23:01.146Z,10.68
2024-02-17T10:25:29.985Z,10.93
2024-02-17T10:27:58.896Z,16.15
2024-02-17T10:30:28.363Z,11.90
2024-02-17T10:32:58.414Z,12.18
2024-02-17T10:35:27.302Z,11.70
2024-02-17T10:37:57.922Z,9.65
2024-02-17T10:40:27.466Z,11.55
2024-02-17T10:42:56.047Z,11.50
2024-02-17T10:45:24.695Z,15.15
2024-02-17T10:48:02.549Z,11.50
2024-02-17T10:50:33.661Z,13.18
2024-02-17T10:53:08.799Z,7.68
2024-02-17T10:55:40.087Z,11.73
2024-02-17T10:58:15.575Z,9.67
2024-02-17T11:00:50.898Z,9.75
2024-02-17T11:03:29.622Z,7.95
2024-02-17T11:06:06.772Z,11.98
2024-02-17T11:08:35.981Z,10.20
2024-02-17T11:11:23.921Z,12.02
2024-02-17T11:13:53.974Z,11.43
2024-02-17T11:16:24.803Z,8.13
2024-02-17T11:18:57.051Z,9.65
2024-02-17T11:21:32.223Z,11.93
2024-02-17T11:24:01.391Z,11.00
2024-02-17T11:26:37.476Z,11.23
2024-02-17T11:29:32.602Z,16.73
2024-02-17T11:32:04.398Z,8.70
2024-02-17T11:34:34.650Z,9.95
2024-02-17T11:37:06.369Z,8.57
2024-02-17T11:39:35.358Z,8.98
2024-02-17T11:42:05.959Z,10.27
2024-02-17T11:44:34.776Z,9.75
2024-02-17T11:47:03.409Z,11.57
2024-02-17T11:49:38.306Z,10.68
2024-02-17T11:52:08.325Z,10.23
2024-02-17T11:54:38.460Z,11.15
2024-02-17T11:57:07.970Z,10.27
2024-02-17T11:59:36.760Z,9.05
2024-02-17T12:02:07.318Z,9.65
2024-02-17T12:04:39.266Z,9.70
2024-02-17T12:07:08.029Z,11.15
2024-02-17T12:09:37.816Z,7.45
2024-02-17T12:12:07.431Z,14.38
2024-02-17T12:14:35.898Z,7.75
2024-02-17T12:17:04.807Z,10.80
2024-02-17T12:19:35.012Z,7.72
2024-02-17T12:22:04.087Z,10.05
2024-02-17T12:24:33.328Z,7.55
2024-02-17T12:27:03.253Z,10.68
2024-02-17T12:29:31.855Z,9.10
2024-02-17T12:32:02.198Z,8.57
2024-02-17T12:34:33.442Z,9.63
2024-02-17T12:37:05.612Z,12.65
2024-02-17T12:39:34.544Z,13.25
2024-02-17T12:42:04.906Z,12.98
2024-02-17T12:44:33.695Z,8.57
2024-02-17T12:47:13.618Z,9.82
2024-02-17T12:49:43.231Z,9.13
2024-02-17T12:52:13.261Z,10.52
2024-02-17T12:54:41.926Z,7.93
2024-02-17T12:57:10.607Z,9.25
2024-02-17T12:59:40.917Z,11.00
2024-02-17T13:02:09.493Z,9.75
2024-02-17T13:04:38.078Z,13.38
2024-02-17T13:07:06.654Z,10.48
2024-02-17T13:09:36.050Z,10.02
2024-02-17T13:12:05.119Z,11.98
2024-02-17T13:14:34.390Z,9.48
2024-02-17T13:17:05.594Z,8.70
2024-02-17T13:19:34.688Z,8.57
2024-02-17T13:22:03.423Z,6.20
2024-02-17T13:24:32.146Z,9.48
2024-02-17T13:27:00.764Z,8.90
2024-02-17T13:29:29.482Z,10.18
2024-02-17T13:31:57.926Z,8.75
2024-02-17T13:34:26.932Z,9.52
2024-02-17T13:36:55.586Z,7.25
2024-02-17T13:39:24.270Z,9.93
2024-02-17T13:41:52.743Z,9.43
2024-02-17T13:44:21.317Z,7.28
2024-02-17T13:46:50.157Z,9.50
2024-02-17T13:49:18.690Z,8.65
2024-02-17T13:51:47.500Z,7.60
2024-02-17T13:54:16.173Z,9.95
2024-02-17T13:56:44.627Z,7.30
2024-02-17T13:59:13.023Z,9.57
2024-02-17T14:01:41.555Z,7.40
2024-02-17T14:04:10.474Z,7.68
2024-02-17T14:06:39.007Z,9.80
2024-02-17T14:09:07.749Z,8.55
2024-02-17T14:11:36.395Z,8.35
2024-02-17T14:14:04.911Z,6.68
2024-02-17T14:16:33.337Z,7.25
2024-02-17T14:19:03.217Z,8.52
2024-02-17T14:21:32.013Z,8.50
2024-02-17T14:24:01.165Z,6.68
2024-02-17T14:26:29.608Z,7.88
2024-02-17T14:28:58.437Z,7.43
2024-02-17T14:31:28.940Z,7.55
2024-02-17T14:33:57.603Z,6.70
2024-02-17T14:36:26.290Z,6.78
2024-02-17T14:38:57.100Z,8.27
2024-02-17T14:41:25.643Z,4.63
2024-02-17T14:43:54.084Z,6.38
2024-02-17T14:46:22.564Z,9.73
2024-02-17T14:48:51.390Z,7.13
2024-02-17T14:51:20.064Z,6.93
2024-02-17T14:53:48.901Z,6.05
2024-02-17T14:56:17.439Z,8.43
2024-02-17T14:58:45.842Z,5.47
2024-02-17T15:01:18.453Z,7.05
2024-02-17T15:03:50.043Z,6.72
2024-02-17T15:06:18.922Z,6.32
2024-02-17T15:08:47.533Z,7.25
2024-02-17T15:11:18.857Z,6.18
2024-02-17T15:13:49.084Z,6.00
2024-02-17T15:16:18.189Z,6.50
2024-02-17T15:18:46.893Z,5.63
2024-02-17T15:21:15.560Z,4.55
2024-02-17T15:23:47.131Z,6.80
2024-02-17T15:26:17.340Z,4.80
2024-02-17T15:28:45.966Z,5.38
2024-02-17T15:31:14.950Z,8.63
2024-02-17T15:33:43.623Z,5.03
2024-02-17T15:36:12.894Z,6.22
2024-02-17T15:38:41.452Z,5.30
2024-02-17T15:41:09.958Z,4.38
2024-02-17T15:43:38.453Z,5.45
2024-02-17T15:46:08.077Z,5.63
2024-02-17T15:48:38.199Z,4.05
2024-02-17T15:51:07.453Z,3.97
2024-02-17T15:53:36.863Z,5.45
2024-02-17T15:56:12.863Z,5.10
2024-02-17T15:58:41.778Z,4.13
2024-02-17T16:01:10.464Z,3.97
2024-02-17T16:03:39.535Z,5.35
2024-02-17T16:06:08.486Z,5.78
2024-02-17T16:08:39.003Z,3.67
2024-02-17T16:11:13.187Z,4.40
2024-02-17T16:13:45.740Z,5.38
2024-02-17T16:16:16.507Z,4.50
2024-02-17T16:18:46.836Z,6.20
2024-02-17T16:21:16.051Z,6.53
2024-02-17T16:23:45.362Z,5.55
2024-02-17T16:26:14.014Z,4.20
2024-02-17T16:28:43.555Z,5.50
2024-02-17T16:31:12.133Z,4.70
2024-02-17T16:33:40.785Z,4.03
2024-02-17T16:36:09.379Z,5.13
2024-02-17T16:38:37.965Z,4.90
2024-02-17T16:41:06.446Z,5.93
2024-02-17T16:43:34.979Z,6.35
2024-02-17T16:46:04.602Z,4.72
2024-02-17T16:48:33.301Z,5.00
2024-02-17T16:51:02.633Z,6.03
2024-02-17T16:53:31.189Z,7.20
2024-02-17T16:55:59.654Z,6.00
2024-02-17T16:58:28.220Z,6.53
2024-02-17T17:00:57.166Z,6.85
2024-02-17T17:03:25.758Z,5.80
2024-02-17T17:05:54.224Z,7.35
2024-02-17T17:08:22.772Z,6.03
2024-02-17T17:10:51.903Z,4.93
2024-02-17T17:13:20.839Z,7.45
2024-02-17T17:15:49.909Z,4.90
2024-02-17T17:18:18.682Z,8.10
2024-02-17T17:20:47.576Z,9.07
2024-02-17T17:23:16.146Z,6.72
2024-02-17T17:25:46.089Z,5.70
2024-02-17T17:28:14.868Z,6.18
2024-02-17T17:30:43.546Z,7.22
2024-02-17T17:33:12.213Z,6.78
2024-02-17T17:35:40.855Z,7.05
2024-02-17T17:38:09.359Z,6.60
2024-02-17T17:40:37.795Z,10.20
2024-02-17T17:43:07.530Z,6.72
2024-02-17T17:45:38.251Z,7.30
2024-02-17T17:48:07.541Z,7.50
2024-02-17T17:50:36.111Z,9.95
2024-02-17T17:53:10.688Z,5.15
2024-02-17T17:55:39.420Z,6.03
2024-02-17T17:58:07.959Z,7.47
2024-02-17T18:00:36.496Z,6.60
2024-02-17T18:03:05.017Z,8.15
2024-02-17T18:05:33.805Z,7.13
2024-02-17T18:08:02.308Z,5.82
2024-02-17T18:10:32.851Z,7.53
2024-02-17T18:13:02.849Z,6.95
2024-02-17T18:15:31.394Z,7.20
2024-02-17T18:18:00.401Z,7.00
2024-02-17T18:20:29.403Z,6.78
2024-02-17T18:22:57.865Z,8.38
2024-02-17T18:25:26.405Z,9.02
2024-02-17T18:27:55.001Z,10.32
2024-02-17T18:30:23.664Z,10.80
2024-02-17T18:32:52.414Z,7.90
2024-02-17T18:35:20.982Z,12.15
2024-02-17T18:37:49.513Z,9.93
2024-02-17T18:40:18.078Z,9.48
2024-02-17T18:42:46.524Z,10.52
2024-02-17T18:45:15.210Z,10.77
2024-02-17T18:47:43.780Z,29.13
2024-02-17T18:50:12.454Z,10.35
2024-02-17T18:52:41.102Z,9.73
2024-02-17T18:55:10.842Z,12.45
2024-02-17T18:57:39.952Z,16.05
2024-02-17T19:00:09.283Z,11.02
2024-02-17T19:02:37.777Z,10.43
2024-02-17T19:05:06.963Z,10.93
2024-02-17T19:07:35.471Z,14.18
2024-02-17T19:10:04.655Z,8.27
2024-02-17T19:12:33.242Z,11.70
2024-02-17T19:15:02.752Z,14.18
2024-02-17T19:17:31.267Z,10.32
2024-02-17T19:19:59.921Z,11.10
2024-02-17T19:22:28.762Z,9.02
2024-02-17T19:24:57.852Z,16.83
2024-02-17T19:27:26.554Z,11.52
2024-02-17T19:29:55.523Z,14.00
2024-02-17T19:32:23.971Z,25.67
2024-02-17T19:34:52.580Z,12.50
2024-02-17T19:37:21.079Z,21.88
2024-02-17T19:39:49.550Z,12.25
2024-02-17T19:42:18.149Z,13.43
2024-02-17T19:44:46.782Z,9.73
2024-02-17T19:47:16.832Z,27.70
2024-02-17T19:49:45.353Z,19.20
2024-02-17T19:52:13.795Z,15.05
2024-02-17T19:54:43.082Z,8.88
2024-02-17T19:57:11.607Z,61.10
2024-02-17T19:59:40.141Z,19.38
2024-02-17T20:02:08.643Z,40.72
2024-02-17T20:04:38.809Z,16.23
2024-02-17T20:07:07.672Z,11.35
2024-02-17T20:09:36.908Z,10.43
2024-02-17T20:12:06.684Z,8.82
2024-02-17T20:14:35.644Z,17.15
2024-02-17T20:17:05.060Z,14.50
2024-02-17T20:19:33.689Z,8.55
2024-02-17T20:22:04.214Z,7.57
2024-02-17T20:24:32.805Z,6.97
2024-02-17T20:27:01.315Z,8.65
2024-02-17T20:29:34.774Z,6.82
2024-02-17T20:32:03.560Z,8.15
2024-02-17T20:34:32.249Z,7.03
2024-02-17T20:37:02.385Z,6.55
2024-02-17T20:39:32.087Z,8.68
2024-02-17T20:42:03.531Z,9.30
2024-02-17T20:44:36.122Z,7.30
2024-02-17T20:47:08.735Z,7.93
2024-02-17T20:49:37.408Z,7.30
2024-02-17T20:52:06.455Z,7.13
2024-02-17T20:54:34.987Z,5.57
2024-02-17T20:57:03.965Z,9.48
2024-02-17T20:59:32.391Z,9.02
2024-02-17T21:02:00.886Z,6.32
2024-02-17T21:04:31.151Z,8.50
2024-02-17T21:06:59.831Z,7.43
2024-02-17T21:09:29.247Z,6.05
2024-02-17T21:11:58.173Z,9.63
2024-02-17T21:14:26.603Z,16.90
2024-02-17T21:16:55.003Z,42.38
2024-02-17T21:19:25.222Z,97.97
2024-02-17T21:21:54.032Z,54.92
2024-02-17T21:24:22.584Z,26.80
2024-02-17T21:26:51.108Z,28.17
2024-02-17T21:29:19.550Z,17.60
2024-02-17T21:31:48.266Z,7.47
2024-02-17T21:34:17.145Z,16.08
2024-02-17T21:36:45.850Z,10.10
2024-02-17T21:39:19.382Z,24.98
2024-02-17T21:41:48.155Z,14.75
2024-02-17T21:44:17.077Z,8.52
2024-02-17T21:46:46.007Z,14.40
2024-02-17T21:49:14.541Z,7.15
2024-02-17T21:51:43.182Z,6.38
2024-02-17T21:54:11.925Z,6.75
2024-02-17T21:56:40.547Z,8.48
2024-02-17T21:59:09.483Z,11.70
2024-02-17T22:01:38.462Z,9.55
2024-02-17T22:04:07.355Z,7.10
2024-02-17T22:06:35.946Z,8.25
2024-02-17T22:09:05.550Z,6.07
2024-02-17T22:11:34.053Z,5.05
2024-02-17T22:14:02.598Z,4.63
2024-02-17T22:16:31.102Z,5.45
2024-02-17T22:18:59.585Z,5.90
2024-02-17T22:21:29.137Z,5.05
2024-02-17T22:23:57.776Z,8.75
2024-02-17T22:26:26.420Z,6.93
2024-02-17T22:28:54.840Z,5.57
2024-02-17T22:31:29.248Z,5.97
2024-02-17T22:33:57.855Z,4.45
2024-02-17T22:36:26.515Z,3.63
2024-02-17T22:38:55.377Z,4.93
2024-02-17T22:41:24.273Z,3.45
2024-02-17T22:43:52.769Z,5.40
2024-02-17T22:46:21.494Z,4.05
2024-02-17T22:48:50.011Z,7.18
2024-02-17T22:51:19.138Z,5.70
2024-02-17T22:53:47.723Z,5.22
2024-02-17T22:56:17.210Z,5.82
2024-02-17T22:58:46.074Z,4.53
2024-02-17T23:01:15.107Z,6.05
2024-02-17T23:03:50.083Z,5.55
2024-02-17T23:06:18.755Z,3.33
2024-02-17T23:08:49.310Z,3.53
2024-02-17T23:11:17.950Z,3.97
2024-02-17T23:13:46.501Z,5.38
2024-02-17T23:16:15.094Z,4.55
2024-02-17T23:18:43.774Z,3.38
2024-02-17T23:21:12.422Z,5.57
2024-02-17T23:23:40.899Z,4.75
2024-02-17T23:26:09.417Z,5.65
2024-02-17T23:28:37.869Z,3.92
2024-02-17T23:31:06.531Z,5.25
2024-02-17T23:33:35.236Z,6.40
2024-02-17T23:36:04.046Z,5.18
2024-02-17T23:38:32.466Z,5.00
2024-02-17T23:41:02.268Z,6.35
2024-02-17T23:43:30.757Z,3.60
2024-02-17T23:45:59.287Z,4.43
2024-02-17T23:48:27.820Z,5.68
2024-02-17T23:50:56.381Z,5.28
2024-02-17T23:53:24.836Z,4.28
2024-02-17T23:55:53.458Z,4.05
2024-02-17T23:58:22.602Z,4.55
